createdAt,value
2022-11-27T00:02:04.293Z,34.17
2022-11-27T00:04:36.271Z,32.73
2022-11-27T00:07:07.140Z,32.37
2022-11-27T00:09:36.362Z,31.97
2022-11-27T00:12:08.395Z,28.77
2022-11-27T00:14:37.822Z,42.17
2022-11-27T00:17:07.337Z,38.83
2022-11-27T00:19:36.687Z,31.00
2022-11-27T00:22:05.892Z,36.37
2022-11-27T00:24:35.163Z,36.13
2022-11-27T00:27:04.243Z,33.50
2022-11-27T00:29:35.740Z,35.00
2022-11-27T00:32:06.868Z,29.20
2022-11-27T00:34:43.484Z,28.27
2022-11-27T00:37:17.909Z,26.47
2022-11-27T00:39:49.359Z,27.53
2022-11-27T00:42:22.197Z,25.57
2022-11-27T00:44:52.829Z,26.73
2022-11-27T00:47:22.166Z,27.03
2022-11-27T00:49:51.237Z,25.93
2022-11-27T00:52:20.556Z,26.37
2022-11-27T00:54:51.944Z,26.23
2022-11-27T00:57:21.102Z,27.23
2022-11-27T00:59:50.466Z,25.00
2022-11-27T01:02:21.100Z,26.63
2022-11-27T01:04:51.084Z,24.50
2022-11-27T01:07:22.689Z,23.37
2022-11-27T01:09:51.829Z,23.57
2022-11-27T01:12:20.924Z,24.87
2022-11-27T01:14:49.763Z,25.10
2022-11-27T01:17:20.495Z,27.80
2022-11-27T01:19:50.955Z,28.30
2022-11-27T01:22:20.769Z,25.90
2022-11-27T01:24:50.163Z,24.50
2022-11-27T01:27:19.750Z,26.87
2022-11-27T01:29:49.561Z,26.27
2022-11-27T01:32:20.096Z,25.80
2022-11-27T01:34:49.983Z,27.03
2022-11-27T01:37:18.867Z,23.27
2022-11-27T01:39:49.345Z,25.27
2022-11-27T01:42:18.257Z,24.27
2022-11-27T01:44:56.798Z,24.13
2022-11-27T01:47:47.649Z,24.07
2022-11-27T01:50:22.013Z,25.30
2022-11-27T01:52:55.209Z,23.17
2022-11-27T01:55:30.409Z,26.27
2022-11-27T01:58:03.046Z,25.37
2022-11-27T02:00:32.650Z,26.37
2022-11-27T02:03:03.798Z,25.60
2022-11-27T02:05:34.023Z,26.43
2022-11-27T02:08:07.620Z,26.13
2022-11-27T02:10:49.925Z,25.67
2022-11-27T02:13:25.174Z,28.30
2022-11-27T02:16:00.912Z,27.03
2022-11-27T02:18:37.611Z,28.73
2022-11-27T02:21:12.624Z,28.93
2022-11-27T02:24:03.736Z,26.53
2022-11-27T02:26:51.448Z,28.37
2022-11-27T02:29:25.874Z,28.00
2022-11-27T02:32:02.710Z,26.90
2022-11-27T02:34:39.234Z,26.47
2022-11-27T02:37:20.255Z,25.17
2022-11-27T02:40:03.024Z,28.17
2022-11-27T02:42:35.968Z,27.83
2022-11-27T02:45:10.805Z,25.43
2022-11-27T02:47:42.278Z,24.47
2022-11-27T02:50:15.839Z,24.70
2022-11-27T02:52:46.942Z,23.23
2022-11-27T02:55:19.446Z,23.87
2022-11-27T02:57:49.862Z,24.10
2022-11-27T03:00:24.114Z,24.47
2022-11-27T03:02:58.389Z,23.20
2022-11-27T03:05:31.784Z,22.80
2022-11-27T03:08:04.802Z,28.47
2022-11-27T03:10:38.560Z,24.77
2022-11-27T03:13:09.258Z,26.80
2022-11-27T03:15:47.176Z,24.93
2022-11-27T03:18:25.299Z,24.83
2022-11-27T03:21:06.357Z,24.80
2022-11-27T03:23:35.503Z,26.93
2022-11-27T03:26:04.329Z,27.13
2022-11-27T03:28:34.650Z,28.63
2022-11-27T03:31:05.324Z,27.17
2022-11-27T03:33:34.280Z,27.00
2022-11-27T03:36:03.411Z,27.90
2022-11-27T03:38:32.923Z,27.47
2022-11-27T03:41:07.378Z,28.13
2022-11-27T03:43:44.835Z,29.00
2022-11-27T03:46:25.396Z,28.83
2022-11-27T03:49:04.621Z,29.23
2022-11-27T03:51:44.769Z,32.67
2022-11-27T03:54:19.598Z,28.60
2022-11-27T03:56:55.748Z,29.10
2022-11-27T03:59:28.201Z,30.70
2022-11-27T04:01:59.146Z,28.30
2022-11-27T04:04:28.689Z,29.63
2022-11-27T04:06:57.661Z,29.27
2022-11-27T04:09:27.284Z,28.87
2022-11-27T04:11:56.485Z,28.83
2022-11-27T04:14:25.654Z,28.80
2022-11-27T04:16:54.701Z,29.77
2022-11-27T04:19:25.997Z,27.87
2022-11-27T04:21:54.732Z,30.50
2022-11-27T04:24:24.420Z,30.70
2022-11-27T04:26:57.363Z,29.93
2022-11-27T04:29:26.128Z,29.77
2022-11-27T04:31:55.022Z,31.47
2022-11-27T04:34:25.937Z,29.87
2022-11-27T04:36:55.287Z,29.53
2022-11-27T04:39:24.461Z,31.33
2022-11-27T04:41:53.608Z,30.43
2022-11-27T04:44:22.996Z,31.37
2022-11-27T04:46:52.439Z,30.40
2022-11-27T04:49:21.866Z,29.63
2022-11-27T04:51:54.741Z,30.53
2022-11-27T04:54:23.842Z,30.73
2022-11-27T04:56:52.421Z,32.07
2022-11-27T04:59:21.689Z,32.40
2022-11-27T05:01:50.546Z,32.37
2022-11-27T05:04:19.371Z,31.03
2022-11-27T05:06:49.691Z,30.80
2022-11-27T05:09:21.982Z,32.57
2022-11-27T05:11:51.670Z,30.33
2022-11-27T05:14:22.208Z,32.23
2022-11-27T05:16:54.332Z,32.13
2022-11-27T05:19:25.016Z,32.50
2022-11-27T05:21:55.571Z,32.83
2022-11-27T05:24:28.264Z,32.13
2022-11-27T05:26:57.802Z,31.17
2022-11-27T05:29:27.263Z,31.13
2022-11-27T05:31:57.123Z,33.77
2022-11-27T05:34:26.123Z,30.37
2022-11-27T05:36:55.292Z,31.87
2022-11-27T05:39:30.220Z,31.93
2022-11-27T05:41:59.217Z,30.87
2022-11-27T05:44:28.863Z,29.30
2022-11-27T05:46:58.646Z,31.00
2022-11-27T05:49:32.080Z,29.13
2022-11-27T05:52:01.081Z,29.07
2022-11-27T05:54:31.672Z,31.77
2022-11-27T05:57:00.189Z,30.40
2022-11-27T05:59:29.012Z,44.73
2022-11-27T06:01:57.922Z,29.50
2022-11-27T06:04:27.314Z,31.13
2022-11-27T06:07:03.836Z,31.10
2022-11-27T06:09:35.438Z,29.43
2022-11-27T06:12:04.580Z,26.07
2022-11-27T06:14:36.012Z,29.10
2022-11-27T06:17:05.118Z,28.43
2022-11-27T06:19:34.469Z,27.80
2022-11-27T06:22:03.815Z,27.60
2022-11-27T06:24:34.873Z,26.27
2022-11-27T06:27:03.717Z,27.33
2022-11-27T06:29:32.348Z,28.03
2022-11-27T06:32:01.050Z,28.10
2022-11-27T06:34:30.534Z,28.77
2022-11-27T06:36:59.228Z,25.90
2022-11-27T06:39:27.911Z,29.47
2022-11-27T06:41:58.888Z,26.43
2022-11-27T06:44:28.155Z,28.10
2022-11-27T06:46:57.363Z,27.83
2022-11-27T06:49:28.279Z,29.07
2022-11-27T06:51:57.344Z,28.50
2022-11-27T06:54:26.150Z,28.90
2022-11-27T06:56:55.690Z,25.83
2022-11-27T06:59:27.296Z,26.63
2022-11-27T07:01:55.951Z,26.87
2022-11-27T07:04:25.339Z,25.40
2022-11-27T07:06:56.374Z,28.07
2022-11-27T07:09:26.399Z,27.83
2022-11-27T07:11:55.686Z,29.80
2022-11-27T07:14:29.279Z,28.50
2022-11-27T07:16:58.955Z,26.43
2022-11-27T07:19:28.483Z,26.13
2022-11-27T07:21:57.177Z,25.83
2022-11-27T07:24:26.731Z,29.47
2022-11-27T07:26:55.640Z,27.37
2022-11-27T07:29:26.319Z,25.57
2022-11-27T07:31:55.681Z,26.23
2022-11-27T07:34:24.569Z,23.03
2022-11-27T07:36:54.097Z,24.30
2022-11-27T07:39:46.276Z,21.93
2022-11-27T07:42:37.120Z,23.37
2022-11-27T07:45:04.018Z,22.87
2022-11-27T07:47:32.640Z,22.97
2022-11-27T07:50:02.218Z,23.57
2022-11-27T07:52:35.484Z,22.40
2022-11-27T07:55:08.272Z,22.27
2022-11-27T07:57:37.864Z,19.97
2022-11-27T08:00:12.037Z,23.03
2022-11-27T08:02:41.058Z,21.67
2022-11-27T08:05:14.529Z,23.37
2022-11-27T08:07:43.776Z,20.20
2022-11-27T08:10:13.579Z,19.10
2022-11-27T08:12:42.511Z,20.87
2022-11-27T08:15:14.967Z,20.80
2022-11-27T08:17:45.614Z,20.87
2022-11-27T08:20:16.267Z,22.93
2022-11-27T08:22:45.501Z,22.97
2022-11-27T08:25:14.915Z,22.83
2022-11-27T08:27:44.420Z,21.47
2022-11-27T08:30:15.516Z,22.13
2022-11-27T08:32:45.428Z,22.70
2022-11-27T08:35:14.530Z,16.20
2022-11-27T08:37:43.973Z,16.23
2022-11-27T08:40:13.801Z,16.77
2022-11-27T08:42:43.027Z,18.27
2022-11-27T08:45:13.262Z,18.90
2022-11-27T08:47:43.702Z,18.40
2022-11-27T08:50:12.757Z,18.13
2022-11-27T08:52:41.591Z,17.90
2022-11-27T08:55:11.490Z,16.07
2022-11-27T08:57:40.140Z,17.63
2022-11-27T09:00:10.407Z,18.43
2022-11-27T09:02:40.781Z,19.07
2022-11-27T09:05:11.812Z,18.33
2022-11-27T09:07:42.308Z,19.97
2022-11-27T09:10:13.017Z,21.47
2022-11-27T09:12:43.698Z,21.43
2022-11-27T09:15:14.484Z,19.53
2022-11-27T09:17:45.841Z,19.27
2022-11-27T09:20:16.369Z,19.63
2022-11-27T09:22:46.264Z,19.63
2022-11-27T09:25:15.784Z,20.33
2022-11-27T09:27:45.199Z,20.20
2022-11-27T09:30:15.282Z,19.37
2022-11-27T09:32:46.309Z,20.33
2022-11-27T09:35:16.037Z,20.47
2022-11-27T09:37:45.741Z,17.23
2022-11-27T09:40:19.283Z,18.70
2022-11-27T09:42:55.078Z,16.57
2022-11-27T09:45:25.866Z,19.77
2022-11-27T09:48:05.744Z,18.97
2022-11-27T09:50:41.811Z,17.27
2022-11-27T09:53:21.904Z,13.13
2022-11-27T09:55:57.225Z,22.60
2022-11-27T09:58:37.718Z,16.57
2022-11-27T10:01:17.545Z,15.67
2022-11-27T10:03:48.472Z,16.73
2022-11-27T10:06:28.492Z,17.77
2022-11-27T10:09:12.896Z,16.83
2022-11-27T10:11:53.652Z,18.27
2022-11-27T10:14:40.927Z,16.43
2022-11-27T10:17:18.349Z,15.53
2022-11-27T10:19:56.859Z,16.40
2022-11-27T10:22:33.514Z,16.33
2022-11-27T10:25:13.094Z,16.47
2022-11-27T10:27:47.020Z,17.53
2022-11-27T10:30:17.992Z,16.70
2022-11-27T10:32:56.779Z,18.43
2022-11-27T10:35:30.686Z,17.90
2022-11-27T10:38:07.217Z,21.10
2022-11-27T10:40:40.445Z,17.80
2022-11-27T10:43:14.142Z,18.43
2022-11-27T10:45:48.180Z,16.63
2022-11-27T10:48:18.183Z,13.67
2022-11-27T10:50:49.391Z,14.90
2022-11-27T10:53:27.719Z,18.20
2022-11-27T10:56:29.368Z,17.77
2022-11-27T10:59:01.571Z,15.03
2022-11-27T11:01:42.956Z,16.97
2022-11-27T11:04:36.351Z,16.40
2022-11-27T11:07:06.293Z,16.27
2022-11-27T11:09:37.834Z,16.90
2022-11-27T11:12:10.992Z,16.50
2022-11-27T11:14:43.449Z,17.87
2022-11-27T11:17:19.299Z,19.17
2022-11-27T11:19:49.139Z,19.03
2022-11-27T11:22:20.026Z,18.23
2022-11-27T11:27:36.412Z,17.53
2022-11-27T11:30:08.355Z,16.03
2022-11-27T11:32:39.255Z,17.70
2022-11-27T11:35:13.277Z,16.57
2022-11-27T11:37:47.592Z,15.13
2022-11-27T11:40:26.776Z,13.33
2022-11-27T11:42:59.680Z,12.53
2022-11-27T11:45:36.507Z,12.83
2022-11-27T11:48:23.847Z,12.87
2022-11-27T11:50:56.058Z,12.80
2022-11-27T11:53:35.939Z,15.20
2022-11-27T11:56:15.675Z,16.03
2022-11-27T11:58:55.175Z,14.40
2022-11-27T12:01:55.034Z,14.73
2022-11-27T12:04:49.383Z,14.43
2022-11-27T12:07:27.551Z,15.23
2022-11-27T12:10:05.622Z,15.10
2022-11-27T12:12:49.741Z,14.83
2022-11-27T12:15:24.641Z,15.47
2022-11-27T12:18:02.108Z,13.80
2022-11-27T12:20:52.833Z,15.50
2022-11-27T12:23:49.928Z,14.90
2022-11-27T12:26:31.075Z,16.13
2022-11-27T12:29:38.964Z,15.40
2022-11-27T12:32:35.706Z,16.63
2022-11-27T12:35:25.492Z,14.60
2022-11-27T12:38:02.333Z,14.07
2022-11-27T12:40:48.059Z,15.53
2022-11-27T12:43:26.207Z,15.13
2022-11-27T12:46:01.321Z,15.63
2022-11-27T12:48:36.635Z,15.33
2022-11-27T12:51:11.223Z,14.13
2022-11-27T12:53:47.613Z,13.83
2022-11-27T12:56:22.721Z,15.10
2022-11-27T12:58:57.423Z,14.30
2022-11-27T13:01:31.931Z,13.00
2022-11-27T13:04:11.578Z,14.57
2022-11-27T13:06:50.066Z,15.37
2022-11-27T13:09:27.515Z,14.53
2022-11-27T13:11:58.522Z,14.60
2022-11-27T13:14:30.492Z,13.60
2022-11-27T13:17:05.844Z,13.87
2022-11-27T13:19:40.305Z,15.97
2022-11-27T13:22:13.498Z,14.97
2022-11-27T13:24:43.548Z,15.93
2022-11-27T13:27:19.608Z,15.87
2022-11-27T13:29:55.035Z,15.20
2022-11-27T13:32:27.108Z,14.17
2022-11-27T13:34:59.661Z,14.20
2022-11-27T13:37:32.476Z,14.87
2022-11-27T13:40:04.771Z,15.40
2022-11-27T13:42:36.535Z,15.60
2022-11-27T13:45:11.847Z,14.77
2022-11-27T13:47:44.939Z,14.60
2022-11-27T13:50:16.420Z,15.73
2022-11-27T13:52:57.675Z,16.97
2022-11-27T13:55:30.230Z,17.17
2022-11-27T13:58:01.503Z,17.23
2022-11-27T14:00:38.095Z,17.17
2022-11-27T14:03:10.919Z,16.63
2022-11-27T14:05:43.644Z,15.60
2022-11-27T14:08:25.137Z,15.47
2022-11-27T14:10:58.844Z,17.50
2022-11-27T14:13:40.071Z,15.90
2022-11-27T14:16:26.637Z,18.97
2022-11-27T14:18:58.639Z,17.77
2022-11-27T14:21:38.554Z,17.27
2022-11-27T14:24:26.644Z,17.90
2022-11-27T14:26:56.719Z,17.07
2022-11-27T14:29:26.810Z,21.73
2022-11-27T14:32:02.528Z,20.07
2022-11-27T14:34:33.094Z,19.87
2022-11-27T14:37:02.711Z,17.80
2022-11-27T14:39:34.366Z,18.13
2022-11-27T14:42:06.077Z,18.13
2022-11-27T14:44:36.021Z,17.47
2022-11-27T14:47:09.271Z,16.70
2022-11-27T14:49:38.995Z,17.57
2022-11-27T14:52:17.560Z,18.40
2022-11-27T14:54:55.316Z,17.87
2022-11-27T14:57:29.350Z,20.63
2022-11-27T15:00:15.775Z,19.67
2022-11-27T15:02:50.925Z,20.53
2022-11-27T15:05:26.872Z,20.67
2022-11-27T15:08:03.157Z,19.63
2022-11-27T15:10:41.395Z,16.27
2022-11-27T15:13:29.967Z,17.33
2022-11-27T15:16:04.248Z,16.40
2022-11-27T15:18:41.205Z,16.93
2022-11-27T15:21:15.342Z,17.43
2022-11-27T15:23:47.892Z,17.40
2022-11-27T15:26:41.198Z,16.43
2022-11-27T15:29:54.535Z,16.90
2022-11-27T15:32:27.540Z,16.60
2022-11-27T15:35:01.040Z,17.57
2022-11-27T15:37:33.015Z,17.60
2022-11-27T15:40:05.896Z,16.77
2022-11-27T15:42:36.585Z,17.50
2022-11-27T15:45:16.398Z,18.27
2022-11-27T15:47:46.378Z,17.10
2022-11-27T15:50:20.887Z,18.40
2022-11-27T15:52:51.286Z,20.40
2022-11-27T15:55:23.006Z,20.30
2022-11-27T15:57:56.337Z,19.80
2022-11-27T16:00:26.971Z,18.87
2022-11-27T16:02:59.190Z,20.97
2022-11-27T16:05:30.894Z,22.47
2022-11-27T16:08:06.171Z,20.97
2022-11-27T16:10:35.001Z,21.67
2022-11-27T16:13:05.049Z,20.40
2022-11-27T16:15:34.443Z,19.90
2022-11-27T16:18:04.100Z,19.73
2022-11-27T16:20:35.500Z,19.80
2022-11-27T16:23:04.751Z,20.33
2022-11-27T16:25:33.587Z,18.40
2022-11-27T16:28:03.555Z,20.00
2022-11-27T16:30:32.805Z,20.17
2022-11-27T16:33:04.135Z,19.93
2022-11-27T16:35:35.581Z,20.97
2022-11-27T16:38:06.344Z,22.50
2022-11-27T16:40:37.880Z,23.30
2022-11-27T16:43:08.099Z,22.47
2022-11-27T16:45:38.185Z,20.20
2022-11-27T16:48:08.431Z,20.80
2022-11-27T16:50:40.850Z,21.57
2022-11-27T16:53:10.505Z,21.63
2022-11-27T16:55:41.153Z,22.73
2022-11-27T16:58:13.770Z,22.13
2022-11-27T17:00:43.054Z,22.90
2022-11-27T17:03:16.598Z,22.50
2022-11-27T17:05:51.319Z,23.30
2022-11-27T17:08:21.260Z,23.57
2022-11-27T17:10:50.264Z,22.50
2022-11-27T17:13:19.977Z,23.33
2022-11-27T17:15:49.907Z,21.53
2022-11-27T17:18:20.644Z,23.47
2022-11-27T17:20:51.788Z,24.63
2022-11-27T17:23:21.294Z,22.70
2022-11-27T17:25:51.103Z,23.10
2022-11-27T17:28:21.144Z,24.20
2022-11-27T17:30:50.612Z,24.50
2022-11-27T17:33:20.052Z,23.70
2022-11-27T17:35:48.922Z,23.53
2022-11-27T17:38:21.393Z,23.33
2022-11-27T17:40:51.843Z,24.93
2022-11-27T17:43:25.928Z,24.70
2022-11-27T17:45:55.420Z,25.17
2022-11-27T17:48:25.596Z,24.73
2022-11-27T17:50:55.502Z,25.40
2022-11-27T17:53:26.552Z,25.80
2022-11-27T17:55:57.952Z,26.37
2022-11-27T17:58:27.732Z,26.67
2022-11-27T18:00:57.929Z,27.13
2022-11-27T18:03:27.144Z,26.77
2022-11-27T18:05:57.332Z,27.10
2022-11-27T18:08:28.007Z,26.47
2022-11-27T18:10:58.442Z,25.73
2022-11-27T18:13:35.475Z,27.63
2022-11-27T18:16:12.385Z,26.60
2022-11-27T18:18:43.488Z,27.17
2022-11-27T18:21:18.498Z,28.03
2022-11-27T18:29:39.080Z,28.93
2022-11-27T18:32:17.765Z,29.13
2022-11-27T18:34:50.483Z,27.87
2022-11-27T18:37:21.461Z,28.80
2022-11-27T18:39:53.287Z,29.40
2022-11-27T18:42:23.018Z,28.97
2022-11-27T18:44:54.177Z,31.27
2022-11-27T18:47:23.096Z,31.23
2022-11-27T18:49:55.646Z,30.23
2022-11-27T18:52:25.506Z,30.90
2022-11-27T18:54:57.234Z,28.23
2022-11-27T18:57:28.899Z,30.10
2022-11-27T18:59:59.120Z,33.23
2022-11-27T19:02:31.107Z,31.30
2022-11-27T19:05:01.142Z,31.87
2022-11-27T19:07:32.678Z,32.93
2022-11-27T19:10:03.864Z,30.53
2022-11-27T19:12:33.885Z,31.00
2022-11-27T19:15:05.353Z,31.00
2022-11-27T19:17:34.837Z,30.77
2022-11-27T19:20:07.468Z,31.37
2022-11-27T19:22:40.442Z,32.17
2022-11-27T19:25:12.628Z,32.53
2022-11-27T19:27:49.752Z,30.40
2022-11-27T19:30:20.429Z,31.87
2022-11-27T19:32:52.658Z,32.27
2022-11-27T19:35:25.479Z,31.60
2022-11-27T19:37:57.602Z,29.47
2022-11-27T19:40:34.273Z,32.03
2022-11-27T19:43:05.557Z,31.87
2022-11-27T19:45:38.018Z,32.17
2022-11-27T19:48:11.865Z,32.40
2022-11-27T19:50:42.670Z,32.00
2022-11-27T19:53:12.689Z,33.33
2022-11-27T19:55:44.299Z,31.00
2022-11-27T19:58:14.668Z,30.07
2022-11-27T20:00:45.400Z,33.73
2022-11-27T20:03:15.363Z,31.30
2022-11-27T20:05:47.663Z,34.43
2022-11-27T20:08:17.930Z,31.27
2022-11-27T20:10:53.559Z,33.30
2022-11-27T20:13:24.227Z,31.67
2022-11-27T20:15:54.722Z,32.53
2022-11-27T20:18:24.985Z,30.13
2022-11-27T20:21:06.376Z,31.70
2022-11-27T20:23:36.276Z,31.47
2022-11-27T20:26:08.418Z,30.40
2022-11-27T20:28:39.331Z,30.13
2022-11-27T20:31:11.354Z,32.00
2022-11-27T20:33:41.410Z,30.93
2022-11-27T20:36:13.357Z,32.87
2022-11-27T20:38:42.890Z,33.83
2022-11-27T20:41:16.339Z,32.97
2022-11-27T20:43:46.392Z,32.83
2022-11-27T20:46:17.111Z,33.63
2022-11-27T20:48:48.220Z,30.77
2022-11-27T20:51:21.387Z,32.97
2022-11-27T20:53:52.259Z,33.60
2022-11-27T20:56:24.268Z,33.07
2022-11-27T20:58:56.797Z,31.60
2022-11-27T21:01:27.525Z,35.77
2022-11-27T21:03:58.399Z,35.67
2022-11-27T21:06:30.583Z,33.93
2022-11-27T21:09:02.020Z,34.97
2022-11-27T21:11:35.201Z,35.80
2022-11-27T21:14:06.904Z,36.90
2022-11-27T21:16:40.434Z,36.33
2022-11-27T21:19:15.513Z,35.43
2022-11-27T21:21:45.538Z,34.17
2022-11-27T21:24:15.479Z,32.33
2022-11-27T21:26:46.990Z,33.93
2022-11-27T21:29:17.838Z,32.47
2022-11-27T21:32:38.445Z,33.37
2022-11-27T21:35:08.737Z,32.37
2022-11-27T21:37:38.082Z,32.00
2022-11-27T21:40:10.390Z,36.77
2022-11-27T21:42:44.531Z,35.50
2022-11-27T21:45:15.400Z,33.27
2022-11-27T21:47:44.144Z,33.47
2022-11-27T21:50:14.163Z,35.30
2022-11-27T21:52:44.482Z,33.77
2022-11-27T21:55:14.340Z,33.80
2022-11-27T21:57:44.668Z,33.57
2022-11-27T22:00:15.357Z,35.17
2022-11-27T22:02:46.390Z,34.67
2022-11-27T22:05:16.239Z,36.13
2022-11-27T22:07:48.369Z,34.73
2022-11-27T22:10:18.245Z,34.47
2022-11-27T22:12:49.065Z,35.77
2022-11-27T22:15:18.197Z,33.80
2022-11-27T22:17:48.721Z,33.57
2022-11-27T22:20:18.910Z,32.57
2022-11-27T22:22:49.194Z,36.43
2022-11-27T22:25:19.012Z,33.90
2022-11-27T22:27:50.337Z,33.03
2022-11-27T22:30:20.629Z,106.60
2022-11-27T22:32:49.625Z,49.27
2022-11-27T22:35:21.423Z,32.47
2022-11-27T22:37:55.275Z,32.13
2022-11-27T22:40:25.849Z,30.73
2022-11-27T22:42:57.283Z,31.87
2022-11-27T22:45:27.228Z,32.70
2022-11-27T22:47:56.715Z,32.60
2022-11-27T22:50:28.066Z,30.73
2022-11-27T22:52:58.391Z,31.17
2022-11-27T22:55:29.662Z,32.23
2022-11-27T22:58:00.840Z,32.13
2022-11-27T23:00:30.365Z,31.60
2022-11-27T23:03:02.104Z,31.00
2022-11-27T23:05:32.635Z,31.67
2022-11-27T23:08:01.953Z,33.77
2022-11-27T23:10:31.032Z,32.30
2022-11-27T23:13:02.978Z,33.70
2022-11-27T23:15:35.089Z,34.23
2022-11-27T23:18:04.079Z,32.97
2022-11-27T23:20:33.210Z,32.57
2022-11-27T23:23:02.518Z,35.63
2022-11-27T23:25:32.433Z,35.90
2022-11-27T23:28:05.140Z,37.23
2022-11-27T23:30:34.943Z,35.80
2022-11-27T23:33:04.484Z,38.00
2022-11-27T23:35:33.686Z,34.43
2022-11-27T23:38:03.067Z,37.20
2022-11-27T23:40:31.881Z,35.47
2022-11-27T23:43:02.493Z,38.63
2022-11-27T23:45:32.495Z,39.67
2022-11-27T23:48:01.910Z,40.37
2022-11-27T23:50:31.741Z,38.57
2022-11-27T23:53:01.488Z,40.10
2022-11-27T23:55:30.379Z,39.67
2022-11-27T23:57:59.476Z,36.60
